Time;durP1;ratioP1;P1;durP2;ratioP2;P2;SDS_P1;SDS_P2;PMS_P1;PMS_P2;Temp;Humidity;BMP_temperature;BMP_pressure;BME280_temperature;BME280_humidity;BME280_pressure;Samples;Min_cycle;Max_cycle;Signal;HPM_P1;HPM_P2
2022/12/09 00:02:23;;;;;;;22.45;12.63;;;;;;;;;;5104502;28;20031;-55
2022/12/09 00:04:49;;;;;;;21.55;12.13;;;;;;;;;;5104957;28;20483;-53
2022/12/09 00:07:15;;;;;;;23.42;13.10;;;;;;;;;;5105660;28;20028;-53
2022/12/09 00:09:40;;;;;;;22.70;12.95;;;;;;;;;;5105193;28;20032;-53
2022/12/09 00:12:06;;;;;;;22.48;12.85;;;;;;;;;;5087039;28;20035;-54
2022/12/09 00:14:32;;;;;;;22.50;12.15;;;;;;;;;;5105480;28;20398;-55
2022/12/09 00:16:59;;;;;;;19.50;11.40;;;;;;;;;;5071727;28;20032;-55
2022/12/09 00:19:25;;;;;;;19.27;11.15;;;;;;;;;;5084678;28;20056;-55
2022/12/09 00:21:51;;;;;;;18.40;11.25;;;;;;;;;;5084488;28;20040;-55
2022/12/09 00:24:17;;;;;;;19.50;10.98;;;;;;;;;;5085203;28;20027;-55
2022/12/09 00:26:43;;;;;;;18.52;11.13;;;;;;;;;;5097083;28;20027;-54
2022/12/09 00:29:10;;;;;;;19.52;10.80;;;;;;;;;;5105528;28;20418;-54
2022/12/09 00:31:38;;;;;;;16.17;9.65;;;;;;;;;;5105219;28;20020;-55
2022/12/09 00:34:06;;;;;;;16.83;10.40;;;;;;;;;;5086789;28;20040;-54
2022/12/09 00:36:32;;;;;;;17.00;10.02;;;;;;;;;;5104807;28;20044;-54
2022/12/09 00:38:59;;;;;;;17.55;10.32;;;;;;;;;;5105051;28;20027;-55
2022/12/09 00:41:26;;;;;;;17.08;9.88;;;;;;;;;;5091901;28;20051;-55
2022/12/09 00:43:52;;;;;;;15.25;9.50;;;;;;;;;;5086971;28;20028;-55
2022/12/09 00:46:18;;;;;;;18.23;10.40;;;;;;;;;;5088240;28;20031;-55
2022/12/09 00:48:44;;;;;;;16.70;10.50;;;;;;;;;;5088753;28;20020;-55
2022/12/09 00:51:12;;;;;;;16.23;10.15;;;;;;;;;;5088297;28;20028;-56
2022/12/09 00:53:39;;;;;;;16.70;9.80;;;;;;;;;;5088023;28;20016;-56
2022/12/09 00:56:06;;;;;;;14.85;8.93;;;;;;;;;;5099383;28;20036;-56
2022/12/09 00:58:32;;;;;;;16.30;9.70;;;;;;;;;;5108588;28;20058;-56
2022/12/09 01:00:58;;;;;;;17.30;9.93;;;;;;;;;;5108435;28;20485;-56
2022/12/09 01:03:24;;;;;;;16.00;10.00;;;;;;;;;;5108714;28;20069;-56
2022/12/09 06:12:31;;;;;;;3.88;3.03;;;;;;;;;;5107178;28;20047;-53
2022/12/09 06:14:57;;;;;;;4.65;3.40;;;;;;;;;;5108367;28;20031;-51
2022/12/09 06:17:23;;;;;;;4.85;3.17;;;;;;;;;;5108134;28;20474;-53
2022/12/09 06:19:51;;;;;;;4.07;3.13;;;;;;;;;;5099554;28;20089;-49
2022/12/09 06:22:17;;;;;;;3.65;2.45;;;;;;;;;;5084006;28;20082;-50
2022/12/09 06:24:43;;;;;;;4.30;3.10;;;;;;;;;;5067229;28;20424;-53
2022/12/09 06:27:09;;;;;;;4.68;3.00;;;;;;;;;;5067719;28;20498;-52
2022/12/09 06:29:35;;;;;;;4.00;3.33;;;;;;;;;;5067317;28;20492;-52
2022/12/09 06:32:01;;;;;;;4.25;3.03;;;;;;;;;;5067288;28;20082;-51
2022/12/09 06:34:29;;;;;;;5.75;3.45;;;;;;;;;;5072595;28;20039;-49
2022/12/09 06:36:55;;;;;;;4.07;3.33;;;;;;;;;;5087590;28;20020;-52
2022/12/09 06:39:21;;;;;;;3.20;2.38;;;;;;;;;;5087468;28;20089;-52
2022/12/09 06:41:47;;;;;;;4.10;2.60;;;;;;;;;;5087862;28;20457;-53
2022/12/09 06:44:13;;;;;;;4.20;3.13;;;;;;;;;;5085612;28;20050;-52
2022/12/09 06:46:39;;;;;;;3.67;2.63;;;;;;;;;;5066802;28;20044;-48
2022/12/09 06:49:06;;;;;;;3.28;2.45;;;;;;;;;;5066952;28;20407;-50
2022/12/09 06:51:32;;;;;;;3.20;2.38;;;;;;;;;;5066831;28;20101;-52
2022/12/09 06:53:58;;;;;;;2.58;2.15;;;;;;;;;;5066812;28;20347;-53
2022/12/09 06:56:24;;;;;;;2.45;2.15;;;;;;;;;;5066856;28;20029;-52
2022/12/09 06:58:50;;;;;;;2.78;2.20;;;;;;;;;;5066937;28;20496;-51
2022/12/09 07:01:17;;;;;;;4.55;3.40;;;;;;;;;;5066792;28;20062;-50
2022/12/09 07:03:45;;;;;;;4.03;3.05;;;;;;;;;;5067333;28;20251;-52
2022/12/09 07:06:24;;;;;;;3.22;2.47;;;;;;;;;;5066759;28;20077;-52
2022/12/09 07:08:50;;;;;;;3.95;2.88;;;;;;;;;;5066825;28;20028;-52
2022/12/09 07:11:16;;;;;;;4.15;2.97;;;;;;;;;;5070059;28;20020;-52
2022/12/09 07:13:42;;;;;;;3.85;2.90;;;;;;;;;;5086636;28;20080;-48
2022/12/09 07:16:09;;;;;;;3.28;2.38;;;;;;;;;;5087491;28;20032;-52
2022/12/09 07:18:36;;;;;;;3.30;2.60;;;;;;;;;;5086687;28;20020;-52
2022/12/09 07:21:09;;;;;;;3.65;2.22;;;;;;;;;;5086566;28;20077;-52
2022/12/09 07:23:35;;;;;;;4.43;2.60;;;;;;;;;;5086628;28;20024;-50
2022/12/09 07:26:01;;;;;;;6.18;3.83;;;;;;;;;;5086565;28;20112;-49
2022/12/09 07:28:28;;;;;;;4.50;3.42;;;;;;;;;;5087051;28;20020;-51
2022/12/09 07:30:54;;;;;;;5.18;3.42;;;;;;;;;;5086290;28;20020;-51
2022/12/09 07:33:20;;;;;;;4.45;3.17;;;;;;;;;;5086713;28;20035;-52
2022/12/09 07:35:46;;;;;;;4.03;2.70;;;;;;;;;;5086973;28;20091;-52
2022/12/09 07:38:12;;;;;;;3.10;2.45;;;;;;;;;;5086642;28;20747;-53
2022/12/09 07:40:39;;;;;;;4.18;2.90;;;;;;;;;;5086402;28;20374;-52
2022/12/09 07:43:06;;;;;;;3.25;2.45;;;;;;;;;;5086578;28;20024;-52
2022/12/09 07:45:35;;;;;;;4.00;2.80;;;;;;;;;;5086237;28;20058;-51
2022/12/09 07:48:02;;;;;;;3.67;2.83;;;;;;;;;;5086349;28;20193;-52
2022/12/09 07:50:28;;;;;;;2.90;2.60;;;;;;;;;;5086422;28;20052;-51
2022/12/09 07:52:54;;;;;;;3.05;2.58;;;;;;;;;;5091384;28;20074;-52
2022/12/09 07:55:20;;;;;;;4.00;2.90;;;;;;;;;;5093510;28;20099;-52
2022/12/09 07:57:47;;;;;;;3.13;2.55;;;;;;;;;;5093067;27;20032;-52
2022/12/09 08:00:13;;;;;;;3.65;2.92;;;;;;;;;;5092818;28;20028;-53
2022/12/09 08:02:40;;;;;;;3.28;2.50;;;;;;;;;;5093203;28;20028;-52
2022/12/09 08:05:06;;;;;;;4.10;2.60;;;;;;;;;;5093799;28;20035;-52
2022/12/09 08:07:33;;;;;;;4.00;3.13;;;;;;;;;;5113803;28;20039;-52
2022/12/09 08:10:00;;;;;;;3.08;2.78;;;;;;;;;;5113576;28;20043;-50
2022/12/09 08:12:26;;;;;;;4.25;3.28;;;;;;;;;;5113549;28;20032;-52
2022/12/09 08:14:52;;;;;;;4.00;2.67;;;;;;;;;;5113681;28;20106;-53
2022/12/09 08:17:18;;;;;;;3.65;2.78;;;;;;;;;;5114303;28;20456;-53
2022/12/09 08:19:44;;;;;;;3.25;2.30;;;;;;;;;;5110967;28;20554;-52
2022/12/09 08:22:11;;;;;;;4.97;3.55;;;;;;;;;;5113608;28;20461;-50
2022/12/09 08:24:37;;;;;;;8.45;4.40;;;;;;;;;;5113583;28;20123;-49
2022/12/09 08:27:03;;;;;;;10.75;5.05;;;;;;;;;;5113315;28;20553;-51
2022/12/09 08:29:29;;;;;;;15.38;6.45;;;;;;;;;;5104330;28;20021;-53
2022/12/09 08:31:55;;;;;;;14.25;6.53;;;;;;;;;;5093385;28;20269;-52
2022/12/09 08:34:21;;;;;;;14.73;6.50;;;;;;;;;;5092881;28;20033;-52
2022/12/09 08:36:47;;;;;;;13.07;6.07;;;;;;;;;;5092964;28;20067;-51
2022/12/09 08:39:13;;;;;;;12.88;5.72;;;;;;;;;;5092944;28;20116;-52
2022/12/09 08:41:39;;;;;;;13.80;5.40;;;;;;;;;;5092568;28;20423;-52
2022/12/09 08:44:16;;;;;;;16.30;6.75;;;;;;;;;;5092863;28;20034;-49
2022/12/09 08:46:44;;;;;;;12.32;5.60;;;;;;;;;;5092583;28;20027;-50
2022/12/09 08:49:11;;;;;;;11.82;5.55;;;;;;;;;;5106236;27;20088;-52
2022/12/09 08:51:37;;;;;;;17.00;6.80;;;;;;;;;;5112759;28;20020;-49
2022/12/09 08:54:04;;;;;;;20.95;8.52;;;;;;;;;;5113082;28;20030;-51
2022/12/09 08:56:30;;;;;;;23.50;9.85;;;;;;;;;;5111872;28;20039;-51
2022/12/09 08:58:56;;;;;;;26.80;9.93;;;;;;;;;;5113199;28;20019;-49
2022/12/09 09:01:30;;;;;;;21.67;8.40;;;;;;;;;;5106785;28;20127;-48
2022/12/09 09:03:57;;;;;;;23.20;8.27;;;;;;;;;;5089584;28;20113;-51
2022/12/09 09:06:23;;;;;;;18.75;7.68;;;;;;;;;;5089353;28;20600;-51
2022/12/09 09:08:49;;;;;;;14.40;6.20;;;;;;;;;;5089724;28;20104;-53
2022/12/09 09:11:16;;;;;;;15.60;6.43;;;;;;;;;;5106186;28;20053;-51
2022/12/09 09:13:43;;;;;;;10.05;4.97;;;;;;;;;;5109890;28;20039;-51
2022/12/09 09:16:10;;;;;;;10.68;4.95;;;;;;;;;;5098608;28;20028;-52
2022/12/09 09:18:36;;;;;;;6.30;3.70;;;;;;;;;;5109584;28;20548;-52
2022/12/09 09:21:03;;;;;;;7.40;4.25;;;;;;;;;;5109338;28;20023;-52
2022/12/09 09:23:29;;;;;;;7.13;4.47;;;;;;;;;;5106701;28;20107;-50
2022/12/09 09:25:55;;;;;;;7.88;4.38;;;;;;;;;;5108525;28;20028;-50
2022/12/09 09:28:21;;;;;;;6.43;3.70;;;;;;;;;;5091808;28;20036;-50
2022/12/09 09:30:49;;;;;;;5.57;3.50;;;;;;;;;;5096722;28;20483;-50
2022/12/09 09:33:16;;;;;;;5.05;3.70;;;;;;;;;;5110757;28;20099;-51
2022/12/09 09:35:42;;;;;;;5.72;3.40;;;;;;;;;;5094916;28;20031;-48
2022/12/09 09:38:08;;;;;;;5.65;3.65;;;;;;;;;;5090404;28;20107;-51
2022/12/09 09:40:35;;;;;;;5.93;3.50;;;;;;;;;;5090219;28;20032;-51
2022/12/09 09:43:01;;;;;;;4.30;2.88;;;;;;;;;;5090209;28;20020;-51
2022/12/09 09:45:27;;;;;;;8.43;4.28;;;;;;;;;;5090179;28;20028;-51
2022/12/09 09:47:56;;;;;;;9.23;5.38;;;;;;;;;;5090073;28;20039;-51
2022/12/09 09:50:28;;;;;;;9.85;4.80;;;;;;;;;;5103752;28;20054;-53
2022/12/09 09:52:55;;;;;;;7.65;4.15;;;;;;;;;;5091896;28;20040;-51
2022/12/09 09:55:24;;;;;;;6.88;3.92;;;;;;;;;;5110345;28;20432;-52
2022/12/09 09:57:56;;;;;;;7.35;3.97;;;;;;;;;;5110342;28;20019;-52
2022/12/09 10:00:26;;;;;;;5.00;3.03;;;;;;;;;;5109980;28;20433;-50
2022/12/09 10:03:24;;;;;;;4.45;2.72;;;;;;;;;;5110109;28;20032;-51
2022/12/09 10:05:54;;;;;;;3.80;2.90;;;;;;;;;;5038717;28;20059;-52
2022/12/09 10:08:57;;;;;;;3.55;2.58;;;;;;;;;;5095357;28;20058;-51
2022/12/09 10:11:31;;;;;;;3.28;2.30;;;;;;;;;;4979712;28;20034;-52
2022/12/09 10:14:15;;;;;;;3.65;2.65;;;;;;;;;;5069400;28;20028;-50
2022/12/09 10:16:41;;;;;;;4.72;3.20;;;;;;;;;;5087709;28;20457;-51
2022/12/09 10:19:34;;;;;;;3.85;2.53;;;;;;;;;;5088214;28;20054;-52
2022/12/09 10:22:07;;;;;;;5.28;2.67;;;;;;;;;;5057681;28;20036;-50
2022/12/09 10:24:34;;;;;;;3.22;2.42;;;;;;;;;;5087812;28;20034;-52
2022/12/09 10:27:00;;;;;;;3.95;3.05;;;;;;;;;;5087904;28;20027;-52
2022/12/09 10:29:34;;;;;;;2.95;2.30;;;;;;;;;;5069084;28;20414;-52
2022/12/09 10:32:02;;;;;;;2.88;2.50;;;;;;;;;;5066532;28;20020;-53
2022/12/09 10:34:29;;;;;;;3.30;2.45;;;;;;;;;;5068296;28;20418;-53
2022/12/09 10:36:56;;;;;;;3.10;2.30;;;;;;;;;;5082737;28;20451;-52
2022/12/09 10:39:22;;;;;;;3.33;2.83;;;;;;;;;;5077820;28;20404;-51
2022/12/09 10:44:36;;;;;;;4.03;2.65;;;;;;;;;;5078253;28;20047;-51
2022/12/09 10:47:02;;;;;;;3.53;2.40;;;;;;;;;;5083725;28;20392;-48
2022/12/09 10:49:28;;;;;;;2.97;2.22;;;;;;;;;;5079724;28;20024;-52
2022/12/09 10:51:54;;;;;;;3.08;2.03;;;;;;;;;;5083346;28;20059;-49
2022/12/09 10:54:23;;;;;;;2.70;1.88;;;;;;;;;;5087840;28;20542;-48
2022/12/09 10:57:01;;;;;;;3.25;2.30;;;;;;;;;;5087874;28;20039;-52
2022/12/09 10:59:28;;;;;;;2.78;1.95;;;;;;;;;;5087595;28;20024;-49
2022/12/09 11:02:02;;;;;;;3.58;2.30;;;;;;;;;;5087112;28;20071;-51
2022/12/09 11:04:30;;;;;;;2.50;2.10;;;;;;;;;;5087232;28;20529;-49
2022/12/09 11:06:57;;;;;;;3.33;2.17;;;;;;;;;;5086507;28;20024;-51
2022/12/09 11:09:26;;;;;;;2.95;2.17;;;;;;;;;;5075371;28;20067;-49
2022/12/09 11:11:53;;;;;;;3.03;2.47;;;;;;;;;;5095906;28;20031;-52
2022/12/09 11:14:24;;;;;;;2.58;1.90;;;;;;;;;;5108528;28;20027;-50
2022/12/09 11:16:51;;;;;;;3.10;2.35;;;;;;;;;;5109183;28;20036;-49
2022/12/09 11:19:17;;;;;;;2.08;1.67;;;;;;;;;;5109150;28;20031;-51
2022/12/09 11:21:44;;;;;;;5.50;2.85;;;;;;;;;;5099791;28;20082;-53
2022/12/09 11:24:21;;;;;;;11.55;6.28;;;;;;;;;;5090085;28;20069;-52
2022/12/09 11:26:46;;;;;;;15.57;7.45;;;;;;;;;;5085922;28;20035;-53
2022/12/09 11:29:17;;;;;;;13.80;6.45;;;;;;;;;;5096766;28;20024;-52
2022/12/09 11:31:45;;;;;;;11.25;6.32;;;;;;;;;;5094903;28;20028;-51
2022/12/09 11:34:15;;;;;;;9.18;5.30;;;;;;;;;;5102101;28;20102;-52
2022/12/09 11:36:45;;;;;;;8.30;5.00;;;;;;;;;;5095031;28;20072;-52
2022/12/09 11:39:22;;;;;;;8.43;5.00;;;;;;;;;;5094236;28;20036;-50
2022/12/09 11:44:36;;;;;;;5.90;3.88;;;;;;;;;;5100786;28;20173;-48
2022/12/09 11:47:04;;;;;;;5.53;3.35;;;;;;;;;;5105392;28;20127;-51
2022/12/09 11:49:34;;;;;;;4.32;2.92;;;;;;;;;;5094226;28;20406;-49
2022/12/09 11:52:03;;;;;;;3.50;2.63;;;;;;;;;;5096974;28;20146;-48
2022/12/09 11:54:42;;;;;;;3.67;2.60;;;;;;;;;;5106254;28;20452;-52
2022/12/09 11:57:16;;;;;;;4.90;3.03;;;;;;;;;;5092572;28;20415;-50
2022/12/09 11:59:48;;;;;;;4.60;2.85;;;;;;;;;;5103154;28;20418;-51
2022/12/09 12:02:20;;;;;;;3.75;2.47;;;;;;;;;;5105939;28;20031;-52
2022/12/09 12:04:58;;;;;;;4.13;3.00;;;;;;;;;;5106396;28;20019;-49
2022/12/09 12:07:34;;;;;;;5.35;3.42;;;;;;;;;;5105993;28;20082;-51
2022/12/09 12:10:02;;;;;;;4.13;2.97;;;;;;;;;;5102088;28;20024;-52
2022/12/09 12:12:40;;;;;;;3.67;2.88;;;;;;;;;;5086369;28;20055;-51
2022/12/09 12:15:12;;;;;;;3.67;2.88;;;;;;;;;;5090632;28;20026;-52
2022/12/09 12:17:42;;;;;;;4.85;3.00;;;;;;;;;;5106871;28;20448;-52
2022/12/09 12:20:11;;;;;;;4.38;2.60;;;;;;;;;;5085749;28;20467;-48
2022/12/09 12:22:49;;;;;;;3.88;2.83;;;;;;;;;;5089680;28;20027;-52
2022/12/09 12:25:27;;;;;;;3.47;2.70;;;;;;;;;;5086719;28;20036;-52
2022/12/09 12:28:10;;;;;;;3.85;2.67;;;;;;;;;;5087155;28;20024;-52
2022/12/09 12:30:39;;;;;;;3.53;2.70;;;;;;;;;;5087769;28;20044;-52
2022/12/09 12:33:06;;;;;;;5.03;2.88;;;;;;;;;;5102470;28;20032;-52
2022/12/09 12:35:41;;;;;;;4.32;3.20;;;;;;;;;;5090110;28;20032;-51
2022/12/09 12:38:19;;;;;;;4.45;2.90;;;;;;;;;;5108231;28;20156;-51
2022/12/09 12:40:45;;;;;;;7.07;4.13;;;;;;;;;;5111322;28;20035;-48
2022/12/09 12:46:31;;;;;;;5.43;3.60;;;;;;;;;;5091819;28;20180;-48
2022/12/09 12:49:13;;;;;;;3.88;2.85;;;;;;;;;;5093640;28;20032;-52
2022/12/09 12:51:42;;;;;;;5.68;3.70;;;;;;;;;;5091260;28;20024;-50
2022/12/09 12:54:14;;;;;;;5.82;3.60;;;;;;;;;;5105845;28;20028;-50
2022/12/09 12:56:49;;;;;;;5.22;3.30;;;;;;;;;;5109678;28;20024;-51
2022/12/09 12:59:25;;;;;;;5.55;3.90;;;;;;;;;;5098095;28;20307;-50
2022/12/09 13:02:07;;;;;;;5.30;3.72;;;;;;;;;;5105726;28;20031;-50
2022/12/09 13:04:38;;;;;;;8.77;5.43;;;;;;;;;;5108971;28;20062;-51
2022/12/09 13:07:14;;;;;;;8.52;5.03;;;;;;;;;;5103034;28;20024;-51
2022/12/09 13:09:40;;;;;;;7.93;4.88;;;;;;;;;;5103465;28;20032;-52
2022/12/09 13:12:12;;;;;;;8.32;4.95;;;;;;;;;;5108014;28;20030;-51
2022/12/09 13:14:55;;;;;;;7.97;5.18;;;;;;;;;;5108615;28;20023;-52
2022/12/09 13:17:26;;;;;;;8.13;5.22;;;;;;;;;;5108639;28;20024;-50
2022/12/09 13:19:53;;;;;;;5.97;3.92;;;;;;;;;;5099602;28;20028;-53
2022/12/09 13:22:21;;;;;;;5.80;3.67;;;;;;;;;;5103788;28;20029;-48
2022/12/09 13:25:06;;;;;;;5.32;4.05;;;;;;;;;;5088580;28;20496;-51
2022/12/09 13:27:33;;;;;;;;;;;;;;;;;;5086910;28;20444;-52
2022/12/09 13:29:59;;;;;;;5.95;3.65;;;;;;;;;;5086156;28;20376;-53
2022/12/09 13:32:48;;;;;;;5.55;3.90;;;;;;;;;;5087952;28;20488;-53
2022/12/09 13:35:23;;;;;;;7.13;4.22;;;;;;;;;;5087304;28;20035;-50
2022/12/09 13:37:51;;;;;;;7.97;4.70;;;;;;;;;;5088307;28;20040;-53
2022/12/09 13:40:20;;;;;;;9.88;5.80;;;;;;;;;;5087625;28;20020;-50
2022/12/09 13:42:55;;;;;;;12.80;7.00;;;;;;;;;;5088100;28;20032;-50
2022/12/09 13:45:23;;;;;;;13.15;7.90;;;;;;;;;;5098714;28;20030;-51
2022/12/09 13:47:52;;;;;;;12.55;7.85;;;;;;;;;;5108230;28;20082;-52
2022/12/09 13:50:26;;;;;;;10.20;6.80;;;;;;;;;;5105584;28;20110;-51
2022/12/09 13:52:52;;;;;;;;;;;;;;;;;;5088005;28;20407;-50
2022/12/09 13:55:26;;;;;;;9.50;6.13;;;;;;;;;;5087694;28;19904;-50
2022/12/09 13:57:56;;;;;;;8.60;5.35;;;;;;;;;;5087857;28;20031;-49
2022/12/09 14:00:22;;;;;;;7.22;5.03;;;;;;;;;;5085949;28;20092;-51
2022/12/09 14:02:59;;;;;;;6.80;4.68;;;;;;;;;;5087456;28;20030;-50
2022/12/09 14:05:27;;;;;;;5.97;4.28;;;;;;;;;;5086477;28;20035;-52
2022/12/09 14:07:59;;;;;;;6.18;3.95;;;;;;;;;;5087101;28;20028;-48
2022/12/09 14:10:34;;;;;;;4.82;3.65;;;;;;;;;;5087325;28;20043;-49
2022/12/09 14:13:02;;;;;;;4.97;3.45;;;;;;;;;;5086167;28;20035;-52
2022/12/09 14:15:34;;;;;;;5.15;3.35;;;;;;;;;;5092766;28;20047;-51
2022/12/09 14:18:01;;;;;;;4.07;3.10;;;;;;;;;;5096560;28;20049;-47
2022/12/09 14:20:28;;;;;;;3.92;2.92;;;;;;;;;;5086638;28;20047;-53
2022/12/09 14:23:07;;;;;;;4.20;2.85;;;;;;;;;;5086985;28;20352;-51
2022/12/09 14:25:34;;;;;;;4.18;3.05;;;;;;;;;;5086952;28;20031;-53
2022/12/09 14:28:09;;;;;;;4.38;3.00;;;;;;;;;;5086958;28;20056;-49
2022/12/09 14:30:35;;;;;;;4.47;3.45;;;;;;;;;;5086755;28;20107;-50
2022/12/09 14:33:01;;;;;;;5.05;3.40;;;;;;;;;;5093671;28;20111;-52
2022/12/09 14:35:30;;;;;;;5.35;3.63;;;;;;;;;;5086673;28;20024;-50
2022/12/09 14:38:16;;;;;;;6.85;4.30;;;;;;;;;;5086518;28;20031;-51
2022/12/09 14:40:42;;;;;;;4.60;3.40;;;;;;;;;;5086483;28;20515;-51
2022/12/09 14:43:26;;;;;;;5.78;3.53;;;;;;;;;;5086512;28;20028;-53
2022/12/09 14:45:59;;;;;;;4.07;2.90;;;;;;;;;;5086380;28;20028;-51
2022/12/09 14:48:27;;;;;;;4.30;3.05;;;;;;;;;;5086659;28;20056;-49
2022/12/09 14:51:06;;;;;;;5.20;3.22;;;;;;;;;;5086079;28;20354;-52
2022/12/09 14:53:33;;;;;;;4.15;3.00;;;;;;;;;;5086537;28;20107;-50
2022/12/09 14:55:59;;;;;;;3.97;2.95;;;;;;;;;;5086029;28;20024;-49
2022/12/09 14:58:27;;;;;;;4.15;2.88;;;;;;;;;;5086444;28;20038;-52
2022/12/09 15:01:04;;;;;;;6.60;4.13;;;;;;;;;;5085560;28;20043;-51
2022/12/09 15:03:30;;;;;;;6.00;4.00;;;;;;;;;;5085339;28;20032;-51
2022/12/09 15:05:58;;;;;;;7.20;4.70;;;;;;;;;;5085620;28;20089;-52
2022/12/09 15:08:37;;;;;;;6.57;4.32;;;;;;;;;;5086016;28;20161;-49
2022/12/09 15:11:13;;;;;;;8.38;4.43;;;;;;;;;;5101932;28;20122;-52
2022/12/09 15:13:40;;;;;;;7.05;4.30;;;;;;;;;;5106217;28;20034;-49
2022/12/09 15:16:08;;;;;;;8.50;4.68;;;;;;;;;;5090729;28;20032;-53
2022/12/09 15:18:36;;;;;;;7.95;4.78;;;;;;;;;;5103673;28;20024;-50
2022/12/09 15:21:02;;;;;;;8.82;4.68;;;;;;;;;;5104501;28;20035;-50
2022/12/09 15:23:30;;;;;;;10.18;5.90;;;;;;;;;;5106794;28;20107;-51
2022/12/09 15:26:20;;;;;;;8.85;4.95;;;;;;;;;;5104656;28;20347;-48
2022/12/09 15:28:47;;;;;;;7.60;4.47;;;;;;;;;;5098232;28;20123;-52
2022/12/09 15:31:25;;;;;;;9.00;4.95;;;;;;;;;;5105526;28;20103;-52
2022/12/09 15:33:52;;;;;;;8.43;5.00;;;;;;;;;;5106265;28;20443;-51
2022/12/09 15:36:27;;;;;;;9.13;5.38;;;;;;;;;;5106482;28;20015;-52
2022/12/09 15:39:06;;;;;;;8.90;5.35;;;;;;;;;;5105827;28;20058;-52
2022/12/09 15:44:20;;;;;;;9.57;5.40;;;;;;;;;;5085907;28;20042;-53
2022/12/09 15:46:48;;;;;;;11.13;6.30;;;;;;;;;;5089218;28;20031;-51
2022/12/09 15:49:15;;;;;;;10.25;6.18;;;;;;;;;;5085217;28;20067;-51
2022/12/09 15:51:42;;;;;;;11.32;6.07;;;;;;;;;;5085386;28;20104;-48
2022/12/09 15:54:11;;;;;;;11.90;6.85;;;;;;;;;;5085265;28;20036;-52
2022/12/09 15:56:37;;;;;;;12.23;6.97;;;;;;;;;;5084870;28;20032;-52
2022/12/09 15:59:30;;;;;;;13.27;7.47;;;;;;;;;;5093677;28;20073;-48
2022/12/09 16:01:57;;;;;;;16.98;8.93;;;;;;;;;;5084854;28;20040;-50
2022/12/09 16:04:38;;;;;;;13.50;7.88;;;;;;;;;;5089734;28;20073;-52
2022/12/09 16:07:05;;;;;;;16.27;9.70;;;;;;;;;;5096827;28;20081;-51
2022/12/09 16:09:31;;;;;;;19.77;12.02;;;;;;;;;;5099551;28;20698;-51
2022/12/09 16:11:57;;;;;;;19.55;11.18;;;;;;;;;;5107672;28;20590;-52
2022/12/09 16:14:23;;;;;;;20.65;11.07;;;;;;;;;;5104577;27;20036;-50
2022/12/09 16:16:55;;;;;;;21.45;11.35;;;;;;;;;;5103533;27;20327;-48
2022/12/09 16:19:24;;;;;;;22.08;11.50;;;;;;;;;;5130600;27;20042;-53
2022/12/09 16:21:54;;;;;;;21.80;11.13;;;;;;;;;;5108729;27;20043;-49
2022/12/09 16:24:21;;;;;;;19.15;9.90;;;;;;;;;;5105106;28;20405;-47
2022/12/09 16:26:48;;;;;;;22.02;11.27;;;;;;;;;;5120364;27;20035;-51
2022/12/09 16:29:35;;;;;;;17.88;9.98;;;;;;;;;;5109080;27;20028;-53
2022/12/09 16:32:19;;;;;;;18.35;9.65;;;;;;;;;;5089624;28;20085;-52
2022/12/09 16:34:46;;;;;;;;;;;;;;;;;;5090904;28;20020;-49
2022/12/09 16:37:21;;;;;;;18.80;10.45;;;;;;;;;;5089986;28;19935;-50
2022/12/09 16:39:47;;;;;;;19.92;10.88;;;;;;;;;;5097304;28;20039;-52
2022/12/09 16:42:22;;;;;;;17.63;9.25;;;;;;;;;;5102770;28;20577;-51
2022/12/09 16:44:48;;;;;;;18.73;10.98;;;;;;;;;;5091173;28;20031;-51
2022/12/09 16:47:15;;;;;;;18.30;11.23;;;;;;;;;;5089619;28;20020;-51
2022/12/09 16:49:42;;;;;;;17.17;10.90;;;;;;;;;;5103200;27;20027;-49
2022/12/09 16:52:12;;;;;;;18.63;10.43;;;;;;;;;;5130431;27;20019;-53
2022/12/09 16:54:41;;;;;;;18.23;10.10;;;;;;;;;;5111765;27;20036;-49
2022/12/09 16:57:11;;;;;;;17.02;9.73;;;;;;;;;;5107211;28;20115;-49
2022/12/09 16:59:38;;;;;;;16.30;9.23;;;;;;;;;;5095251;28;20081;-51
2022/12/09 17:02:08;;;;;;;14.30;8.73;;;;;;;;;;5109248;28;20050;-49
2022/12/09 17:04:34;;;;;;;14.25;8.50;;;;;;;;;;5109462;28;20035;-50
2022/12/09 17:07:01;;;;;;;14.23;7.95;;;;;;;;;;5096979;28;20036;-51
2022/12/09 17:09:27;;;;;;;15.57;9.00;;;;;;;;;;5103622;28;20209;-50
2022/12/09 17:11:53;;;;;;;16.23;8.95;;;;;;;;;;5099889;28;20031;-51
2022/12/09 17:14:19;;;;;;;11.82;6.88;;;;;;;;;;5108325;28;20470;-52
2022/12/09 17:16:45;;;;;;;13.10;7.50;;;;;;;;;;5103175;28;20115;-51
2022/12/09 17:19:11;;;;;;;12.07;7.30;;;;;;;;;;5097922;28;20795;-51
2022/12/09 17:21:38;;;;;;;11.85;7.07;;;;;;;;;;5109617;28;20023;-51
2022/12/09 17:24:04;;;;;;;11.85;7.45;;;;;;;;;;5094570;28;20170;-51
2022/12/09 17:26:30;;;;;;;11.60;6.55;;;;;;;;;;5106474;28;20548;-48
2022/12/09 17:28:57;;;;;;;11.95;7.00;;;;;;;;;;5107495;28;20091;-51
2022/12/09 17:31:23;;;;;;;11.32;6.65;;;;;;;;;;5093669;28;20047;-53
2022/12/09 17:33:49;;;;;;;13.57;7.28;;;;;;;;;;5109727;28;20571;-52
2022/12/09 17:36:16;;;;;;;12.75;8.00;;;;;;;;;;5109237;28;20045;-50
2022/12/09 17:38:43;;;;;;;14.57;7.95;;;;;;;;;;5118532;27;20031;-53
2022/12/09 17:41:12;;;;;;;15.20;7.63;;;;;;;;;;5110808;27;20027;-49
2022/12/09 17:43:38;;;;;;;14.93;7.22;;;;;;;;;;5107201;28;20055;-50
2022/12/09 17:46:05;;;;;;;15.65;8.15;;;;;;;;;;5095550;28;20068;-50
2022/12/09 17:48:31;;;;;;;15.05;7.63;;;;;;;;;;5107900;28;20032;-52
2022/12/09 17:50:58;;;;;;;14.93;7.57;;;;;;;;;;5108906;28;20024;-48
2022/12/09 17:53:25;;;;;;;12.30;6.82;;;;;;;;;;5109710;27;20028;-52
2022/12/09 17:55:51;;;;;;;12.80;7.18;;;;;;;;;;5109481;27;20482;-51
2022/12/09 17:58:17;;;;;;;12.93;7.18;;;;;;;;;;5105863;28;20281;-49
2022/12/09 18:00:43;;;;;;;13.30;6.57;;;;;;;;;;5116013;27;20055;-50
2022/12/09 18:03:09;;;;;;;13.75;7.72;;;;;;;;;;5107056;28;20050;-50
2022/12/09 18:05:38;;;;;;;14.57;7.80;;;;;;;;;;5108852;28;20015;-49
2022/12/09 18:08:04;;;;;;;13.77;7.75;;;;;;;;;;5108792;27;20042;-51
2022/12/09 18:10:32;;;;;;;13.13;7.85;;;;;;;;;;5100062;28;20078;-51
2022/12/09 18:12:58;;;;;;;12.77;7.13;;;;;;;;;;5090778;28;20038;-51
2022/12/09 18:15:26;;;;;;;13.23;7.90;;;;;;;;;;5098201;28;20020;-50
2022/12/09 18:17:52;;;;;;;14.48;8.50;;;;;;;;;;5097679;28;20038;-49
2022/12/09 18:20:18;;;;;;;16.75;8.60;;;;;;;;;;5103925;28;20067;-52
2022/12/09 18:22:44;;;;;;;15.90;8.48;;;;;;;;;;5090109;28;20086;-48
2022/12/09 18:25:10;;;;;;;16.15;8.95;;;;;;;;;;5087067;28;20032;-50
2022/12/09 18:27:37;;;;;;;15.55;7.85;;;;;;;;;;5087665;28;20469;-52
2022/12/09 18:30:03;;;;;;;17.08;8.73;;;;;;;;;;5090949;28;20024;-50
2022/12/09 18:32:30;;;;;;;15.98;8.65;;;;;;;;;;5083452;28;20122;-50
2022/12/09 18:34:56;;;;;;;16.23;8.60;;;;;;;;;;5107132;28;20030;-51
2022/12/09 18:37:24;;;;;;;13.88;7.68;;;;;;;;;;5106612;28;20106;-52
2022/12/09 18:39:50;;;;;;;14.98;7.60;;;;;;;;;;5098001;28;20119;-52
2022/12/09 18:42:16;;;;;;;14.63;7.75;;;;;;;;;;5101044;28;20475;-53
2022/12/09 18:44:42;;;;;;;14.73;7.80;;;;;;;;;;5108087;28;20028;-51
2022/12/09 18:47:09;;;;;;;14.10;7.68;;;;;;;;;;5105830;28;20055;-52
2022/12/09 18:49:35;;;;;;;15.07;7.60;;;;;;;;;;5097936;28;20016;-51
2022/12/09 18:52:02;;;;;;;14.55;7.70;;;;;;;;;;5108238;28;20444;-50
2022/12/09 18:54:31;;;;;;;12.82;6.97;;;;;;;;;;5108279;28;20019;-53
2022/12/09 18:57:00;;;;;;;12.80;7.53;;;;;;;;;;5107781;28;20031;-51
2022/12/09 18:59:27;;;;;;;13.68;7.55;;;;;;;;;;5106003;28;20061;-53
2022/12/09 19:01:53;;;;;;;14.15;7.28;;;;;;;;;;5096294;28;20498;-51
2022/12/09 19:04:20;;;;;;;13.07;6.80;;;;;;;;;;5106107;28;20457;-52
2022/12/09 19:06:47;;;;;;;15.25;7.32;;;;;;;;;;5109860;27;20038;-54
2022/12/09 19:09:14;;;;;;;17.02;8.38;;;;;;;;;;5128135;27;20027;-53
2022/12/09 19:11:41;;;;;;;14.40;7.45;;;;;;;;;;5126429;27;20038;-52
2022/12/09 19:14:08;;;;;;;17.02;8.35;;;;;;;;;;5100591;28;20124;-51
2022/12/09 19:16:34;;;;;;;15.15;8.00;;;;;;;;;;5094375;28;20020;-52
2022/12/09 19:19:01;;;;;;;17.63;8.45;;;;;;;;;;5102248;28;20022;-51
2022/12/09 19:21:28;;;;;;;16.55;8.45;;;;;;;;;;5095433;27;20031;-53
2022/12/09 19:23:55;;;;;;;18.70;8.98;;;;;;;;;;5091971;28;20538;-53
2022/12/09 19:26:25;;;;;;;17.65;9.27;;;;;;;;;;5097002;28;20027;-53
2022/12/09 19:28:56;;;;;;;21.00;9.60;;;;;;;;;;5093482;28;20024;-50
2022/12/09 19:31:24;;;;;;;18.45;9.20;;;;;;;;;;5098728;28;20124;-49
2022/12/09 19:33:54;;;;;;;19.13;9.45;;;;;;;;;;5088112;28;20024;-49
2022/12/09 19:36:20;;;;;;;22.42;10.32;;;;;;;;;;5091933;28;20020;-52
2022/12/09 19:38:47;;;;;;;19.80;10.85;;;;;;;;;;5094298;28;20024;-50
2022/12/09 19:41:13;;;;;;;20.02;9.88;;;;;;;;;;5100319;27;20036;-51
2022/12/09 19:43:39;;;;;;;21.25;9.95;;;;;;;;;;5103904;27;20027;-52
2022/12/09 19:46:07;;;;;;;22.83;10.40;;;;;;;;;;5092749;28;20023;-49
2022/12/09 19:48:36;;;;;;;19.75;9.50;;;;;;;;;;5087231;28;20603;-51
2022/12/09 19:51:06;;;;;;;16.90;8.43;;;;;;;;;;5084996;28;20032;-49
2022/12/09 19:53:33;;;;;;;17.77;9.35;;;;;;;;;;5087577;28;20020;-50
2022/12/09 19:56:00;;;;;;;16.88;9.00;;;;;;;;;;5103115;28;20402;-52
2022/12/09 19:58:28;;;;;;;19.05;10.20;;;;;;;;;;5085452;28;20475;-52
2022/12/09 20:00:54;;;;;;;23.17;11.25;;;;;;;;;;5097410;28;20030;-51
2022/12/09 20:03:21;;;;;;;24.92;12.63;;;;;;;;;;5090983;28;20098;-51
2022/12/09 20:05:51;;;;;;;33.58;15.27;;;;;;;;;;5095965;28;20406;-51